createdAt,value
2018-07-03T00:03:52.068Z,17.60
2018-07-03T00:07:55.746Z,17.50
2018-07-03T00:11:59.428Z,17.50
2018-07-03T00:16:03.184Z,17.40
2018-07-03T00:20:08.201Z,17.30
2018-07-03T00:24:11.928Z,17.20
2018-07-03T00:28:15.591Z,17.20
2018-07-03T00:32:19.258Z,17.10
2018-07-03T00:36:22.932Z,17.00
2018-07-03T00:40:26.621Z,16.90
2018-07-03T00:44:30.308Z,16.80
2018-07-03T00:48:34.019Z,16.80
2018-07-03T00:52:37.754Z,16.70
2018-07-03T00:56:41.424Z,16.70
2018-07-03T01:00:45.088Z,16.60
2018-07-03T01:04:48.828Z,16.50
2018-07-03T01:08:52.583Z,16.40
2018-07-03T01:12:56.985Z,16.30
2018-07-03T01:17:00.684Z,16.20
2018-07-03T01:21:04.347Z,16.20
2018-07-03T01:25:07.960Z,16.10
2018-07-03T01:29:11.620Z,16.10
2018-07-03T01:33:15.264Z,15.90
2018-07-03T03:56:32.387Z,15.80
2018-07-03T04:00:36.028Z,13.10
2018-07-03T04:04:39.722Z,13.10
2018-07-03T04:08:43.377Z,13.10
2018-07-03T04:12:47.048Z,13.10
2018-07-03T04:16:50.673Z,13.20
2018-07-03T04:20:54.344Z,13.20
2018-07-03T04:24:58.034Z,13.20
2018-07-03T04:37:08.313Z,13.30
2018-07-03T04:41:11.952Z,13.40
2018-07-03T04:45:15.684Z,13.50
2018-07-03T04:49:19.377Z,13.50
2018-07-03T04:53:23.107Z,13.60
2018-07-03T04:57:26.727Z,13.60
2018-07-03T05:01:30.378Z,13.70
2018-07-03T05:05:34.068Z,13.80
2018-07-03T05:09:37.881Z,13.90
2018-07-03T05:13:41.583Z,14.00
2018-07-03T05:21:48.537Z,14.20
2018-07-03T05:25:52.214Z,14.30
2018-07-03T05:29:55.880Z,14.40
2018-07-03T05:33:59.528Z,14.40
2018-07-03T05:38:03.169Z,14.50
2018-07-03T05:42:06.958Z,14.60
2018-07-03T05:46:10.613Z,14.70
2018-07-03T05:50:14.279Z,14.80
2018-07-03T05:58:21.235Z,15.00
2018-07-03T06:02:24.899Z,15.10
2018-07-03T06:10:31.915Z,15.40
2018-07-03T06:14:35.596Z,15.50
2018-07-03T06:18:39.296Z,15.70
2018-07-03T06:22:42.986Z,15.90
2018-07-03T06:26:46.758Z,16.10
2018-07-03T06:30:50.449Z,16.50
2018-07-03T06:34:54.236Z,17.80
2018-07-03T06:38:57.888Z,19.80
2018-07-03T06:43:01.607Z,21.70
2018-07-03T06:47:05.290Z,23.50
2018-07-03T06:51:09.044Z,25.00
2018-07-03T06:55:12.761Z,26.30
2018-07-03T06:59:16.505Z,27.50
2018-07-03T07:03:20.247Z,28.40
2018-07-03T07:07:23.930Z,29.30
2018-07-03T07:11:28.305Z,30.40
2018-07-03T07:15:32.231Z,30.90
2018-07-03T07:19:36.094Z,31.30
2018-07-03T07:23:39.818Z,32.00
2018-07-03T07:27:43.467Z,32.10
2018-07-03T07:31:47.162Z,32.40
2018-07-03T07:35:50.917Z,33.20
2018-07-03T07:39:54.570Z,33.20
2018-07-03T07:43:58.244Z,33.60
2018-07-03T07:48:01.987Z,33.90
2018-07-03T07:52:05.903Z,33.90
2018-07-03T07:56:09.561Z,34.10
2018-07-03T08:00:14.068Z,34.20
2018-07-03T08:04:17.712Z,34.40
2018-07-03T08:08:21.370Z,34.40
2018-07-03T08:12:25.035Z,34.50
2018-07-03T08:16:28.701Z,34.60
2018-07-03T08:20:32.324Z,34.80
2018-07-03T08:24:36.004Z,34.70
2018-07-03T08:28:39.667Z,34.80
2018-07-03T08:32:46.287Z,34.80
2018-07-03T08:40:53.335Z,34.80
2018-07-03T08:44:56.966Z,35.00
2018-07-03T08:49:00.621Z,35.00
2018-07-03T08:53:04.340Z,35.00
2018-07-03T08:57:08.019Z,35.10
2018-07-03T09:01:11.703Z,35.10
2018-07-03T09:05:15.328Z,35.10
2018-07-03T09:09:19.058Z,34.80
2018-07-03T09:13:22.800Z,34.40
2018-07-03T09:17:29.413Z,34.20
2018-07-03T09:21:33.063Z,34.00
2018-07-03T09:25:36.706Z,34.00
2018-07-03T09:29:40.360Z,33.50
2018-07-03T09:33:44.016Z,33.10
2018-07-03T09:37:47.724Z,32.50
2018-07-03T09:41:51.777Z,32.00
2018-07-03T09:45:55.445Z,31.40
2018-07-03T09:49:59.093Z,30.90
2018-07-03T09:54:02.800Z,30.50
2018-07-03T09:58:06.459Z,30.10
2018-07-03T10:02:10.100Z,29.90
2018-07-03T10:06:13.731Z,29.70
2018-07-03T10:10:17.407Z,29.40
2018-07-03T10:14:21.062Z,29.00
2018-07-03T10:18:24.883Z,28.70
2018-07-03T10:22:28.535Z,28.50
2018-07-03T10:26:32.181Z,28.40
2018-07-03T10:30:35.880Z,28.30
2018-07-03T10:34:39.528Z,28.30
2018-07-03T10:38:43.172Z,28.20
2018-07-03T10:42:47.725Z,28.10
2018-07-03T10:46:51.334Z,27.90
2018-07-03T10:50:55.127Z,27.80
2018-07-03T10:54:58.816Z,27.60
2018-07-03T10:59:02.460Z,27.50
2018-07-03T11:03:06.172Z,27.40
2018-07-03T11:07:09.787Z,27.30
2018-07-03T11:11:13.458Z,27.30
2018-07-03T11:15:17.169Z,27.30
2018-07-03T11:19:20.812Z,27.20
2018-07-03T11:23:24.456Z,27.10
2018-07-03T11:27:28.077Z,27.10
2018-07-03T11:31:31.829Z,27.00
2018-07-03T11:35:35.508Z,27.10
2018-07-03T11:39:39.173Z,27.10
2018-07-03T11:43:42.819Z,27.10
2018-07-03T11:47:46.428Z,27.10
2018-07-03T11:51:50.215Z,27.10
2018-07-03T11:55:53.896Z,27.20
2018-07-03T11:59:57.533Z,27.30
2018-07-03T12:04:01.268Z,27.30
2018-07-03T12:08:04.960Z,27.40
2018-07-03T12:12:08.622Z,27.50
2018-07-03T12:16:12.290Z,27.60
2018-07-03T12:20:15.947Z,27.80
2018-07-03T12:24:19.635Z,27.90
2018-07-03T12:28:23.297Z,27.90
2018-07-03T12:32:26.948Z,28.20
2018-07-03T12:36:30.668Z,28.30
2018-07-03T12:40:34.298Z,28.40
2018-07-03T12:44:37.939Z,28.50
2018-07-03T12:48:41.523Z,28.80
2018-07-03T12:52:45.234Z,28.80
2018-07-03T12:56:48.981Z,29.00
2018-07-03T13:00:52.622Z,29.20
2018-07-03T13:04:56.310Z,29.30
2018-07-03T13:08:59.900Z,29.40
2018-07-03T13:13:03.631Z,29.50
2018-07-03T13:17:07.305Z,29.60
2018-07-03T13:21:11.064Z,29.80
2018-07-03T13:25:14.738Z,30.00
2018-07-03T13:29:18.574Z,30.20
2018-07-03T13:33:22.304Z,30.40
2018-07-03T13:37:25.964Z,30.60
2018-07-03T13:41:29.592Z,30.80
2018-07-03T13:45:33.264Z,30.90
2018-07-03T13:49:36.874Z,31.00
2018-07-03T13:53:40.554Z,31.20
2018-07-03T13:57:44.268Z,31.30
2018-07-03T14:01:47.935Z,31.30
2018-07-03T14:05:51.596Z,31.30
2018-07-03T14:09:55.251Z,31.40
2018-07-03T14:13:58.891Z,31.50
2018-07-03T14:18:02.564Z,31.50
2018-07-03T14:22:06.326Z,31.60
2018-07-03T14:26:09.982Z,31.60
2018-07-03T14:30:13.619Z,31.70
2018-07-03T14:34:17.288Z,31.70
2018-07-03T14:38:21.196Z,31.70
2018-07-03T14:42:24.876Z,31.80
2018-07-03T14:46:28.552Z,31.80
2018-07-03T14:50:32.333Z,31.80
2018-07-03T14:54:35.932Z,31.90
2018-07-03T14:58:39.666Z,31.90
2018-07-03T15:02:43.308Z,31.90
2018-07-03T15:06:46.965Z,31.80
2018-07-03T15:10:50.650Z,31.80
2018-07-03T15:14:54.327Z,31.80
2018-07-03T15:19:03.213Z,31.90
2018-07-03T15:23:06.889Z,31.80
2018-07-03T15:27:10.556Z,31.80
2018-07-03T15:31:14.225Z,31.80
2018-07-03T15:35:17.828Z,31.80
2018-07-03T15:39:21.460Z,31.90
2018-07-03T15:43:25.120Z,31.80
2018-07-03T15:47:28.788Z,31.80
2018-07-03T15:51:32.491Z,31.80
2018-07-03T15:55:42.546Z,31.80
2018-07-03T15:59:46.224Z,31.90
2018-07-03T16:04:00.522Z,31.90
2018-07-03T16:08:13.067Z,31.80
2018-07-03T16:12:16.771Z,31.80
2018-07-03T16:16:20.455Z,31.70
2018-07-03T16:20:29.322Z,31.60
2018-07-03T16:24:33.048Z,31.60
2018-07-03T16:28:36.723Z,31.60
2018-07-03T16:32:40.372Z,31.60
2018-07-03T16:36:44.003Z,31.70
2018-07-03T16:40:47.690Z,31.60
2018-07-03T16:44:51.439Z,31.60
2018-07-03T16:48:55.119Z,31.50
2018-07-03T16:52:58.832Z,31.50
2018-07-03T16:57:02.471Z,31.40
2018-07-03T17:01:06.173Z,31.40
2018-07-03T17:05:09.874Z,31.40
2018-07-03T17:09:13.560Z,31.30
2018-07-03T17:13:17.213Z,31.20
2018-07-03T17:17:20.871Z,31.10
2018-07-03T17:21:24.541Z,31.10
2018-07-03T17:25:28.221Z,31.10
2018-07-03T17:29:32.525Z,31.00
2018-07-03T17:33:36.237Z,30.90
2018-07-03T17:37:39.837Z,30.90
2018-07-03T17:41:54.928Z,30.80
2018-07-03T17:46:04.716Z,30.70
2018-07-03T17:50:08.380Z,30.50
2018-07-03T17:54:12.128Z,30.40
2018-07-03T17:58:15.800Z,30.40
2018-07-03T18:02:19.395Z,30.30
2018-07-03T18:06:23.091Z,30.30
2018-07-03T18:10:26.914Z,30.20
2018-07-03T18:14:30.567Z,30.10
2018-07-03T18:18:34.231Z,29.90
2018-07-03T18:22:37.873Z,29.60
2018-07-03T18:26:41.536Z,29.60
2018-07-03T18:30:45.200Z,29.50
2018-07-03T18:34:48.856Z,29.20
2018-07-03T18:38:52.479Z,29.00
2018-07-03T18:42:56.140Z,28.80
2018-07-03T18:46:59.791Z,28.60
2018-07-03T18:51:03.526Z,28.40
2018-07-03T18:55:07.222Z,28.20
2018-07-03T18:59:10.808Z,28.10
2018-07-03T19:03:14.510Z,27.80
2018-07-03T19:07:18.177Z,27.70
2018-07-03T19:59:42.266Z,27.30
2018-07-03T20:03:45.919Z,24.60
2018-07-03T20:07:49.564Z,24.40
2018-07-03T20:11:53.236Z,24.30
2018-07-03T20:15:56.886Z,24.20
2018-07-03T20:20:00.596Z,24.10
2018-07-03T20:24:04.276Z,24.00
2018-07-03T20:28:08.327Z,23.90
2018-07-03T20:32:11.966Z,23.70
2018-07-03T20:36:15.600Z,23.60
2018-07-03T20:40:19.225Z,23.50
2018-07-03T20:44:22.874Z,23.40
2018-07-03T20:48:27.192Z,23.30
2018-07-03T20:52:30.863Z,23.20
2018-07-03T20:56:34.510Z,23.10
2018-07-03T21:00:38.153Z,23.00
2018-07-03T21:04:41.826Z,22.90
2018-07-03T21:08:45.565Z,22.80
2018-07-03T21:12:49.215Z,22.60
2018-07-03T21:16:52.864Z,22.50
2018-07-03T21:20:56.488Z,22.40
2018-07-03T21:25:00.136Z,22.30
2018-07-03T21:29:03.779Z,22.20
2018-07-03T21:33:07.418Z,22.10
2018-07-03T21:37:11.077Z,22.00
2018-07-03T21:41:14.752Z,21.80
2018-07-03T21:45:18.403Z,21.70
2018-07-03T21:49:22.070Z,21.60
2018-07-03T21:53:25.775Z,21.50
2018-07-03T21:57:29.439Z,21.40
2018-07-03T22:01:33.045Z,21.30
2018-07-03T22:05:37.341Z,21.20
2018-07-03T22:09:40.966Z,21.10
2018-07-03T22:13:44.613Z,21.00
2018-07-03T22:17:48.259Z,20.80
2018-07-03T22:21:51.892Z,20.70
2018-07-03T22:25:55.577Z,20.60
2018-07-03T22:29:59.208Z,20.50
2018-07-03T22:34:02.900Z,20.40
2018-07-03T22:38:06.643Z,20.30
2018-07-03T22:42:10.241Z,20.20
2018-07-03T22:46:13.931Z,20.10
2018-07-03T22:50:17.682Z,20.00
2018-07-03T22:54:21.365Z,19.90
2018-07-03T22:58:25.018Z,19.70
2018-07-03T23:02:28.618Z,19.70
2018-07-03T23:06:32.262Z,19.60
2018-07-03T23:10:35.912Z,19.50
2018-07-03T23:14:39.540Z,19.40
2018-07-03T23:18:43.327Z,19.30
2018-07-03T23:22:46.977Z,19.20
2018-07-03T23:26:50.685Z,19.10
2018-07-03T23:30:54.330Z,19.00
2018-07-03T23:34:57.966Z,19.00
2018-07-03T23:39:01.595Z,18.90
2018-07-03T23:43:05.267Z,18.80
2018-07-03T23:47:20.160Z,18.70
2018-07-03T23:51:35.178Z,18.60
2018-07-03T23:55:49.972Z,18.60
